createdAt,value
2023-06-07T00:00:09.492Z,12.70
2023-06-07T00:02:58.470Z,13.10
2023-06-07T00:05:27.231Z,12.10
2023-06-07T00:07:55.513Z,13.40
2023-06-07T00:10:23.278Z,12.40
2023-06-07T00:12:51.233Z,13.20
2023-06-07T00:15:19.010Z,12.70
2023-06-07T00:17:47.402Z,12.80
2023-06-07T00:20:16.015Z,14.10
2023-06-07T00:22:43.945Z,13.10
2023-06-07T00:25:11.756Z,13.40
2023-06-07T00:27:39.674Z,13.30
2023-06-07T00:30:08.054Z,13.90
2023-06-07T00:32:36.050Z,13.20
2023-06-07T00:35:03.997Z,13.10
2023-06-07T00:37:31.753Z,12.70
2023-06-07T00:39:59.547Z,12.90
2023-06-07T00:42:27.490Z,11.80
2023-06-07T00:44:55.256Z,12.40
2023-06-07T00:47:23.054Z,13.20
2023-06-07T00:49:51.193Z,13.20
2023-06-07T00:52:19.066Z,13.00
2023-06-07T00:54:46.928Z,12.70
2023-06-07T00:57:14.689Z,12.30
2023-06-07T00:59:42.456Z,12.90
2023-06-07T01:02:10.253Z,12.80
2023-06-07T01:04:42.066Z,12.00
2023-06-07T01:07:09.986Z,12.50
2023-06-07T01:09:37.917Z,12.80
2023-06-07T01:12:07.218Z,13.60
2023-06-07T01:14:34.981Z,14.10
2023-06-07T01:17:03.786Z,13.90
2023-06-07T01:19:31.538Z,14.10
2023-06-07T01:21:59.303Z,13.60
2023-06-07T01:24:31.327Z,14.00
2023-06-07T01:27:00.285Z,13.70
2023-06-07T01:29:28.232Z,14.70
2023-06-07T01:31:56.051Z,15.70
2023-06-07T01:34:23.960Z,15.40
2023-06-07T01:36:52.084Z,15.70
2023-06-07T01:39:20.107Z,16.90
2023-06-07T01:41:47.979Z,16.30
2023-06-07T01:44:15.939Z,16.50
2023-06-07T01:46:43.710Z,17.80
2023-06-07T01:49:11.470Z,17.60
2023-06-07T01:51:39.391Z,16.60
2023-06-07T01:54:07.206Z,17.50
2023-06-07T01:56:34.969Z,17.40
2023-06-07T01:59:03.350Z,16.60
2023-06-07T02:01:31.157Z,16.80
2023-06-07T02:03:59.135Z,17.30
2023-06-07T02:06:27.043Z,15.50
2023-06-07T02:08:54.807Z,16.20
2023-06-07T02:11:23.708Z,16.40
2023-06-07T02:13:51.462Z,16.90
2023-06-07T02:16:20.804Z,16.90
2023-06-07T02:18:48.732Z,17.30
2023-06-07T02:21:16.498Z,16.70
2023-06-07T02:23:44.408Z,17.70
2023-06-07T02:26:13.179Z,17.30
2023-06-07T02:28:41.019Z,17.10
2023-06-07T02:31:08.906Z,18.40
2023-06-07T02:33:36.755Z,16.90
2023-06-07T02:36:04.515Z,17.30
2023-06-07T02:38:32.286Z,16.90
2023-06-07T02:41:00.972Z,16.80
2023-06-07T02:43:28.934Z,18.40
2023-06-07T02:45:56.857Z,18.10
2023-06-07T02:48:24.667Z,17.30
2023-06-07T02:50:52.429Z,17.90
2023-06-07T02:53:20.369Z,17.70
2023-06-07T02:55:48.166Z,17.80
2023-06-07T02:58:16.960Z,18.50
2023-06-07T03:00:50.095Z,18.20
2023-06-07T03:03:18.339Z,17.30
2023-06-07T03:05:50.925Z,16.70
2023-06-07T03:08:18.765Z,18.00
2023-06-07T03:10:46.547Z,18.50
2023-06-07T03:13:14.495Z,18.60
2023-06-07T03:15:42.259Z,19.10
2023-06-07T03:18:10.134Z,18.40
2023-06-07T03:20:38.608Z,17.80
2023-06-07T03:23:06.578Z,17.60
2023-06-07T03:25:34.492Z,17.90
2023-06-07T03:28:02.310Z,17.80
2023-06-07T03:30:30.128Z,17.30
2023-06-07T03:32:57.974Z,16.50
2023-06-07T03:35:26.233Z,16.40
2023-06-07T03:37:54.091Z,16.70
2023-06-07T03:40:21.850Z,17.10
2023-06-07T03:42:49.618Z,18.50
2023-06-07T03:45:17.391Z,17.60
2023-06-07T03:47:45.299Z,16.90
2023-06-07T03:50:13.131Z,18.00
2023-06-07T03:52:40.983Z,16.20
2023-06-07T03:55:08.742Z,18.00
2023-06-07T03:57:36.509Z,18.50
2023-06-07T04:00:12.673Z,19.80
2023-06-07T04:02:40.557Z,18.80
2023-06-07T04:05:09.915Z,19.80
2023-06-07T04:07:39.037Z,19.30
2023-06-07T04:10:07.263Z,19.80
2023-06-07T04:12:35.281Z,19.20
2023-06-07T04:15:03.076Z,18.40
2023-06-07T04:17:31.125Z,18.30
2023-06-07T04:19:58.881Z,17.50
2023-06-07T04:22:26.854Z,18.60
2023-06-07T04:24:54.926Z,19.50
2023-06-07T04:27:24.848Z,19.40
2023-06-07T04:29:55.173Z,18.70
2023-06-07T04:32:23.396Z,18.70
2023-06-07T04:34:53.048Z,17.50
2023-06-07T04:37:20.914Z,17.70
2023-06-07T04:39:50.588Z,18.70
2023-06-07T04:42:18.382Z,18.70
2023-06-07T04:44:46.555Z,18.30
2023-06-07T04:47:15.177Z,18.80
2023-06-07T04:49:43.109Z,18.10
2023-06-07T04:52:14.013Z,17.80
2023-06-07T04:54:41.975Z,17.90
2023-06-07T04:57:10.545Z,17.60
2023-06-07T04:59:44.267Z,18.20
2023-06-07T05:02:12.139Z,18.90
2023-06-07T05:04:39.931Z,18.80
2023-06-07T05:07:07.805Z,18.10
2023-06-07T05:09:36.232Z,18.40
2023-06-07T05:12:03.987Z,17.50
2023-06-07T05:14:31.814Z,18.00
2023-06-07T05:17:01.348Z,16.30
2023-06-07T05:19:31.126Z,16.80
2023-06-07T05:21:58.892Z,17.50
2023-06-07T05:24:26.663Z,17.50
2023-06-07T05:26:54.418Z,15.10
2023-06-07T05:29:23.004Z,15.30
2023-06-07T05:31:51.084Z,15.50
2023-06-07T05:34:19.050Z,15.50
2023-06-07T05:36:46.813Z,15.80
2023-06-07T05:39:14.585Z,15.20
2023-06-07T05:41:42.340Z,14.70
2023-06-07T05:44:10.210Z,13.90
2023-06-07T05:46:38.612Z,14.40
2023-06-07T05:49:06.969Z,14.70
2023-06-07T05:51:34.833Z,14.70
2023-06-07T05:54:02.600Z,15.70
2023-06-07T05:56:30.362Z,15.50
2023-06-07T05:58:58.073Z,15.40
2023-06-07T06:01:25.890Z,15.20
2023-06-07T06:03:53.756Z,13.90
2023-06-07T06:06:22.235Z,15.20
2023-06-07T06:08:50.006Z,14.60
2023-06-07T06:11:17.775Z,14.40
2023-06-07T06:13:46.449Z,15.90
2023-06-07T06:16:14.259Z,14.20
2023-06-07T06:18:41.975Z,13.60
2023-06-07T06:21:09.972Z,14.50
2023-06-07T06:23:37.889Z,14.80
2023-06-07T06:26:06.039Z,14.30
2023-06-07T06:28:33.955Z,14.60
2023-06-07T06:31:02.860Z,14.70
2023-06-07T06:33:31.030Z,13.50
2023-06-07T06:35:59.005Z,13.80
2023-06-07T06:38:27.165Z,13.00
2023-06-07T06:40:55.237Z,13.90
2023-06-07T06:43:23.112Z,13.70
2023-06-07T06:45:50.973Z,13.40
2023-06-07T06:48:18.852Z,12.60
2023-06-07T06:50:48.444Z,13.10
2023-06-07T06:53:16.215Z,12.80
2023-06-07T06:55:43.983Z,12.30
2023-06-07T06:58:12.108Z,12.70
2023-06-07T07:00:39.909Z,12.20
2023-06-07T07:03:07.763Z,11.60
2023-06-07T07:05:36.104Z,10.90
2023-06-07T07:08:04.431Z,10.90
2023-06-07T07:10:32.423Z,11.90
2023-06-07T07:13:00.230Z,11.80
2023-06-07T07:15:29.056Z,11.40
2023-06-07T07:17:57.021Z,11.00
2023-06-07T07:20:24.967Z,10.60
2023-06-07T07:22:52.867Z,11.40
2023-06-07T07:25:20.735Z,11.40
2023-06-07T07:27:48.503Z,10.50
2023-06-07T07:30:17.100Z,10.40
2023-06-07T07:32:45.022Z,10.00
2023-06-07T07:35:12.985Z,8.80
2023-06-07T07:37:41.107Z,9.50
2023-06-07T07:40:13.714Z,9.30
2023-06-07T07:42:41.584Z,8.90
2023-06-07T07:45:09.500Z,8.80
2023-06-07T07:47:37.823Z,9.00
2023-06-07T07:50:06.924Z,9.00
2023-06-07T07:52:35.048Z,8.80
2023-06-07T07:55:04.514Z,8.00
2023-06-07T07:57:32.521Z,7.50
2023-06-07T08:00:00.504Z,6.90
2023-06-07T08:02:28.528Z,7.20
2023-06-07T08:04:56.483Z,7.00
2023-06-07T08:07:24.301Z,7.00
2023-06-07T08:09:52.120Z,6.70
2023-06-07T08:12:19.928Z,6.30
2023-06-07T08:14:47.696Z,6.60
2023-06-07T08:17:15.455Z,6.90
2023-06-07T08:19:43.244Z,5.90
2023-06-07T08:22:11.093Z,6.10
2023-06-07T08:24:38.852Z,6.10
2023-06-07T08:27:06.976Z,6.50
2023-06-07T08:29:34.790Z,6.20
2023-06-07T08:32:02.552Z,6.60
2023-06-07T08:34:31.859Z,6.40
2023-06-07T08:37:02.523Z,6.00
2023-06-07T08:39:30.451Z,6.60
2023-06-07T08:41:58.316Z,6.30
2023-06-07T08:44:26.082Z,6.20
2023-06-07T08:46:53.971Z,5.70
2023-06-07T08:49:21.826Z,6.10
2023-06-07T08:51:52.846Z,6.00
2023-06-07T08:54:25.845Z,5.90
2023-06-07T08:56:53.665Z,5.70
2023-06-07T08:59:21.782Z,5.70
2023-06-07T09:01:50.002Z,5.40
2023-06-07T09:04:17.958Z,4.50
2023-06-07T09:06:46.303Z,5.00
2023-06-07T09:09:14.380Z,5.10
2023-06-07T09:11:42.446Z,5.60
2023-06-07T09:14:10.208Z,4.20
2023-06-07T09:16:38.145Z,4.40
2023-06-07T09:19:07.477Z,4.40
2023-06-07T09:21:36.787Z,4.70
2023-06-07T09:24:04.829Z,4.70
2023-06-07T09:26:32.620Z,4.40
2023-06-07T09:29:00.996Z,4.50
2023-06-07T09:31:30.374Z,5.10
2023-06-07T09:33:58.469Z,4.80
2023-06-07T09:36:26.567Z,5.50
2023-06-07T09:38:54.432Z,5.40
2023-06-07T09:41:22.483Z,4.90
2023-06-07T09:43:55.957Z,5.50
2023-06-07T09:46:23.820Z,5.40
2023-06-07T09:48:51.966Z,5.20
2023-06-07T09:51:20.508Z,4.60
2023-06-07T09:53:48.218Z,5.40
2023-06-07T09:56:16.167Z,4.90
2023-06-07T09:58:47.444Z,4.60
2023-06-07T10:01:15.786Z,5.10
2023-06-07T10:03:44.758Z,4.70
2023-06-07T10:06:12.558Z,5.80
2023-06-07T10:08:40.389Z,5.00
2023-06-07T10:11:08.186Z,4.90
2023-06-07T10:13:36.144Z,4.60
2023-06-07T10:16:08.873Z,4.70
2023-06-07T10:18:36.905Z,5.40
2023-06-07T10:21:05.043Z,4.80
2023-06-07T10:23:32.940Z,5.20
2023-06-07T10:26:00.874Z,5.40
2023-06-07T10:28:29.516Z,4.60
2023-06-07T10:30:58.871Z,4.70
2023-06-07T10:33:26.725Z,5.20
2023-06-07T10:35:54.520Z,4.80
2023-06-07T10:38:22.266Z,4.60
2023-06-07T10:40:50.133Z,5.20
2023-06-07T10:43:17.888Z,5.00
2023-06-07T10:45:45.690Z,5.00
2023-06-07T10:48:13.699Z,4.90
2023-06-07T10:50:41.595Z,6.20
2023-06-07T10:53:13.197Z,5.70
2023-06-07T10:55:42.696Z,6.10
2023-06-07T10:58:10.554Z,4.60
2023-06-07T11:00:40.028Z,5.30
2023-06-07T11:03:13.559Z,5.30
2023-06-07T11:05:42.008Z,5.00
2023-06-07T11:08:10.125Z,4.90
2023-06-07T11:10:38.039Z,4.70
2023-06-07T11:13:05.972Z,5.10
2023-06-07T11:15:37.877Z,5.30
2023-06-07T11:18:16.073Z,5.30
2023-06-07T11:20:47.274Z,5.40
2023-06-07T11:23:15.117Z,5.60
2023-06-07T11:25:42.862Z,4.80
2023-06-07T11:28:11.092Z,4.40
2023-06-07T11:30:39.009Z,3.80
2023-06-07T11:33:07.314Z,2.80
2023-06-07T11:35:35.255Z,2.80
2023-06-07T11:38:03.112Z,3.00
2023-06-07T11:40:31.180Z,3.30
2023-06-07T11:42:58.949Z,3.70
2023-06-07T11:45:27.022Z,3.60
2023-06-07T11:47:56.486Z,4.00
2023-06-07T11:50:25.929Z,3.90
2023-06-07T11:52:54.355Z,4.00
2023-06-07T11:55:22.175Z,3.80
2023-06-07T11:57:53.150Z,4.10
2023-06-07T12:00:22.205Z,4.00
2023-06-07T12:02:50.171Z,4.10
2023-06-07T12:05:19.070Z,4.70
2023-06-07T12:07:46.928Z,4.20
2023-06-07T12:10:14.696Z,4.20
2023-06-07T12:12:43.799Z,4.60
2023-06-07T12:15:12.099Z,4.60
2023-06-07T12:17:41.084Z,4.20
2023-06-07T12:20:12.874Z,4.40
2023-06-07T12:22:40.785Z,4.30
2023-06-07T12:25:09.597Z,4.10
2023-06-07T12:27:40.512Z,3.70
2023-06-07T12:30:08.448Z,3.40
2023-06-07T12:32:36.521Z,3.60
2023-06-07T12:35:07.086Z,3.90
2023-06-07T12:37:36.602Z,3.80
2023-06-07T12:40:05.893Z,3.60
2023-06-07T12:42:33.963Z,4.00
2023-06-07T12:45:02.625Z,6.30
2023-06-07T12:47:30.866Z,4.90
2023-06-07T12:49:59.680Z,4.40
2023-06-07T12:52:27.586Z,5.30
2023-06-07T12:54:55.451Z,4.70
2023-06-07T12:57:23.317Z,5.70
2023-06-07T12:59:51.285Z,5.50
2023-06-07T13:02:22.051Z,4.40
2023-06-07T13:04:50.315Z,4.60
2023-06-07T13:07:20.619Z,14.90
2023-06-07T13:09:48.483Z,27.90
2023-06-07T13:12:19.332Z,23.90
2023-06-07T13:14:47.828Z,26.40
2023-06-07T13:17:17.313Z,80.10
2023-06-07T13:19:45.894Z,280.70
2023-06-07T13:22:13.967Z,128.30
2023-06-07T13:24:41.753Z,24.30
2023-06-07T13:27:10.106Z,8.10
2023-06-07T13:29:37.982Z,10.30
2023-06-07T13:32:05.790Z,5.80
2023-06-07T13:34:33.706Z,5.70
2023-06-07T13:37:01.475Z,4.80
2023-06-07T13:39:29.233Z,5.40
2023-06-07T13:41:57.013Z,5.30
2023-06-07T13:44:24.870Z,5.20
2023-06-07T13:46:53.081Z,5.90
2023-06-07T13:49:21.122Z,8.20
2023-06-07T13:51:49.286Z,6.10
2023-06-07T13:54:17.049Z,6.50
2023-06-07T13:56:45.213Z,9.40
2023-06-07T13:59:13.149Z,7.10
2023-06-07T14:01:41.143Z,6.10
2023-06-07T14:04:09.397Z,5.80
2023-06-07T14:06:40.328Z,19.00
2023-06-07T14:09:08.585Z,6.40
2023-06-07T14:11:39.015Z,6.10
2023-06-07T14:14:06.843Z,5.90
2023-06-07T14:16:35.253Z,5.90
2023-06-07T14:19:03.610Z,7.40
2023-06-07T14:21:33.006Z,5.80
2023-06-07T14:24:00.994Z,6.40
2023-06-07T14:26:29.048Z,5.70
2023-06-07T14:28:57.003Z,5.50
2023-06-07T14:31:25.005Z,5.80
2023-06-07T14:33:53.451Z,5.90
2023-06-07T14:36:21.643Z,5.40
2023-06-07T14:38:49.403Z,4.90
2023-06-07T14:41:17.181Z,4.80
2023-06-07T14:43:45.033Z,4.40
2023-06-07T14:46:12.959Z,4.60
2023-06-07T14:48:41.074Z,5.20
2023-06-07T14:51:08.942Z,4.60
2023-06-07T14:53:36.718Z,5.00
2023-06-07T14:56:04.469Z,4.10
2023-06-07T14:58:32.240Z,4.10
2023-06-07T15:01:00.040Z,3.90
2023-06-07T15:03:28.018Z,3.80
2023-06-07T15:05:55.838Z,5.00
2023-06-07T15:08:23.597Z,4.30
2023-06-07T15:10:51.977Z,4.00
2023-06-07T15:13:20.151Z,4.00
2023-06-07T15:15:47.949Z,4.10
2023-06-07T15:18:17.833Z,4.80
2023-06-07T15:20:45.812Z,4.40
2023-06-07T15:23:13.667Z,3.90
2023-06-07T15:25:41.437Z,4.10
2023-06-07T15:28:10.118Z,4.10
2023-06-07T15:30:37.986Z,11.80
2023-06-07T15:33:05.828Z,5.80
2023-06-07T15:35:33.716Z,4.50
2023-06-07T15:38:01.604Z,4.00
2023-06-07T15:40:29.453Z,4.00
2023-06-07T15:42:57.330Z,4.40
2023-06-07T15:45:25.185Z,4.40
2023-06-07T15:47:53.004Z,4.50
2023-06-07T15:50:21.031Z,4.90
2023-06-07T15:52:48.784Z,4.50
2023-06-07T15:55:16.549Z,4.80
2023-06-07T15:57:44.311Z,4.60
2023-06-07T16:00:23.318Z,5.00
2023-06-07T16:03:00.449Z,4.60
2023-06-07T16:05:28.595Z,4.80
2023-06-07T16:07:57.206Z,4.80
2023-06-07T16:10:29.245Z,5.80
2023-06-07T16:12:57.218Z,7.60
2023-06-07T16:15:25.027Z,5.20
2023-06-07T16:17:52.891Z,4.80
2023-06-07T16:20:21.328Z,4.30
2023-06-07T16:22:49.119Z,3.90
2023-06-07T16:25:16.853Z,4.60
2023-06-07T16:27:44.673Z,5.00
2023-06-07T16:30:18.585Z,4.30
2023-06-07T16:32:46.704Z,3.80
2023-06-07T16:35:14.663Z,3.30
2023-06-07T16:37:42.432Z,3.70
2023-06-07T16:40:10.197Z,3.50
2023-06-07T16:42:40.773Z,3.60
2023-06-07T16:45:10.033Z,3.60
2023-06-07T16:47:37.922Z,3.20
2023-06-07T16:50:06.271Z,3.20
2023-06-07T16:52:34.352Z,4.50
2023-06-07T16:55:02.016Z,3.70
2023-06-07T16:57:29.888Z,3.50
2023-06-07T16:59:59.528Z,4.00
2023-06-07T17:02:27.446Z,3.90
2023-06-07T17:04:55.332Z,4.00
2023-06-07T17:07:23.183Z,4.20
2023-06-07T17:09:50.956Z,4.00
2023-06-07T17:12:18.710Z,4.00
2023-06-07T17:14:49.406Z,4.10
2023-06-07T17:17:17.732Z,4.50
2023-06-07T17:19:45.698Z,5.10
2023-06-07T17:22:13.560Z,5.50
2023-06-07T17:24:41.327Z,5.90
2023-06-07T17:27:09.097Z,5.50
2023-06-07T17:29:36.944Z,4.50
2023-06-07T17:32:04.751Z,4.10
2023-06-07T17:34:32.685Z,3.80
2023-06-07T17:37:00.757Z,4.70
2023-06-07T17:39:28.524Z,4.40
2023-06-07T17:41:56.491Z,4.10
2023-06-07T17:44:26.002Z,4.80
2023-06-07T17:46:53.869Z,4.20
2023-06-07T17:49:24.395Z,4.90
2023-06-07T17:51:54.563Z,4.60
2023-06-07T17:54:23.505Z,6.20
2023-06-07T17:56:51.474Z,4.70
2023-06-07T17:59:19.443Z,6.60
2023-06-07T18:01:47.764Z,7.50
2023-06-07T18:04:16.179Z,8.50
2023-06-07T18:06:43.966Z,8.90
2023-06-07T18:09:11.865Z,7.30
2023-06-07T18:11:39.597Z,7.20
2023-06-07T18:14:07.370Z,6.40
2023-06-07T18:16:35.466Z,6.00
2023-06-07T18:19:03.403Z,5.40
2023-06-07T18:21:31.476Z,7.20
2023-06-07T18:23:59.299Z,6.70
2023-06-07T18:26:27.308Z,7.70
2023-06-07T18:28:55.083Z,7.50
2023-06-07T18:31:22.991Z,8.90
2023-06-07T18:33:50.916Z,9.60
2023-06-07T18:36:18.679Z,8.50
2023-06-07T18:38:46.748Z,7.90
2023-06-07T18:41:14.521Z,8.80
2023-06-07T18:43:42.428Z,7.60
2023-06-07T18:46:10.353Z,9.20
2023-06-07T18:48:38.380Z,8.80
2023-06-07T18:51:06.511Z,8.10
2023-06-07T18:53:34.461Z,9.50
2023-06-07T18:56:04.480Z,10.30
2023-06-07T18:58:32.246Z,9.50
2023-06-07T19:01:00.170Z,7.40
2023-06-07T19:03:28.286Z,7.60
2023-06-07T19:05:56.467Z,7.40
2023-06-07T19:08:24.434Z,7.00
2023-06-07T19:10:52.297Z,7.10
2023-06-07T19:13:20.072Z,7.10
2023-06-07T19:15:47.823Z,7.10
2023-06-07T19:18:15.857Z,6.60
2023-06-07T19:20:43.867Z,6.90
2023-06-07T19:23:11.832Z,9.00
2023-06-07T19:25:40.829Z,8.40
2023-06-07T19:28:08.596Z,8.50
2023-06-07T19:30:36.471Z,8.00
2023-06-07T19:33:14.267Z,9.20
2023-06-07T19:35:44.681Z,8.20
2023-06-07T19:38:12.547Z,9.10
2023-06-07T19:40:40.419Z,9.10
2023-06-07T19:43:08.193Z,10.90
2023-06-07T19:45:36.081Z,13.20
2023-06-07T19:48:04.105Z,12.50
2023-06-07T19:50:32.105Z,12.90
2023-06-07T19:53:00.280Z,12.40
2023-06-07T19:55:28.331Z,13.60
2023-06-07T19:57:56.317Z,12.30
2023-06-07T20:00:25.294Z,10.70
2023-06-07T20:02:53.176Z,10.60
2023-06-07T20:05:21.030Z,9.90
2023-06-07T20:07:49.302Z,9.00
2023-06-07T20:10:17.066Z,9.60
2023-06-07T20:12:44.835Z,9.20
2023-06-07T20:15:13.622Z,8.80
2023-06-07T20:17:41.533Z,8.30
2023-06-07T20:20:09.556Z,8.70
2023-06-07T20:22:37.542Z,8.30
2023-06-07T20:25:05.397Z,9.70
2023-06-07T20:27:33.158Z,11.00
2023-06-07T20:30:01.677Z,10.20
2023-06-07T20:32:29.831Z,11.00
2023-06-07T20:34:59.041Z,10.70
2023-06-07T20:37:26.898Z,10.20
2023-06-07T20:39:54.749Z,11.00
2023-06-07T20:42:22.517Z,9.90
2023-06-07T20:44:53.852Z,10.80
2023-06-07T20:47:22.343Z,9.30
2023-06-07T20:49:50.511Z,10.40
2023-06-07T20:52:18.290Z,10.40
2023-06-07T20:54:46.041Z,10.50
2023-06-07T20:57:13.907Z,9.90
2023-06-07T20:59:41.977Z,10.60
2023-06-07T21:02:09.743Z,11.10
2023-06-07T21:04:37.513Z,14.30
2023-06-07T21:07:05.369Z,14.80
2023-06-07T21:09:33.142Z,16.80
2023-06-07T21:12:01.320Z,13.90
2023-06-07T21:14:29.074Z,15.60
2023-06-07T21:16:57.556Z,13.90
2023-06-07T21:19:25.425Z,13.30
2023-06-07T21:21:53.295Z,13.90
2023-06-07T21:24:21.174Z,13.00
2023-06-07T21:26:49.126Z,11.70
2023-06-07T21:29:17.315Z,10.70
2023-06-07T21:31:45.230Z,11.20
2023-06-07T21:34:14.322Z,10.50
2023-06-07T21:36:42.330Z,10.10
2023-06-07T21:39:10.202Z,10.70
2023-06-07T21:41:37.969Z,9.70
2023-06-07T21:44:05.726Z,10.30
2023-06-07T21:46:33.685Z,10.10
2023-06-07T21:49:01.566Z,10.80
2023-06-07T21:51:29.453Z,10.20
2023-06-07T21:53:57.299Z,10.30
2023-06-07T21:56:25.074Z,10.20
2023-06-07T21:58:52.934Z,8.60
2023-06-07T22:01:20.970Z,9.30
2023-06-07T22:03:48.781Z,8.40
2023-06-07T22:06:16.738Z,9.00
2023-06-07T22:08:44.499Z,8.30
2023-06-07T22:11:12.365Z,7.10
2023-06-07T22:13:40.799Z,8.80
2023-06-07T22:16:10.165Z,10.10
2023-06-07T22:18:38.129Z,11.60
2023-06-07T22:21:06.104Z,11.10
2023-06-07T22:23:33.981Z,11.20
2023-06-07T22:26:02.333Z,12.10
2023-06-07T22:28:31.104Z,12.60
2023-06-07T22:30:59.088Z,12.80
2023-06-07T22:33:27.060Z,12.40
2023-06-07T22:35:58.663Z,11.30
2023-06-07T22:40:54.454Z,10.90
2023-06-07T22:43:22.322Z,11.50
2023-06-07T22:45:50.191Z,11.70
2023-06-07T22:48:20.272Z,11.00
2023-06-07T22:50:48.884Z,10.90
2023-06-07T22:53:17.577Z,11.60
2023-06-07T22:55:45.442Z,10.30
2023-06-07T22:58:13.534Z,11.60
2023-06-07T23:00:41.379Z,11.80
2023-06-07T23:03:09.360Z,12.20
2023-06-07T23:05:38.310Z,11.50
2023-06-07T23:08:06.310Z,12.80
2023-06-07T23:10:36.762Z,12.70
2023-06-07T23:13:18.535Z,12.80
2023-06-07T23:15:46.539Z,12.90
2023-06-07T23:18:14.713Z,13.20
2023-06-07T23:20:42.904Z,14.00
2023-06-07T23:23:11.541Z,13.10
2023-06-07T23:25:39.501Z,13.00
2023-06-07T23:28:07.312Z,12.90
2023-06-07T23:30:35.358Z,14.00
2023-06-07T23:33:03.244Z,14.30
2023-06-07T23:35:31.077Z,14.60
2023-06-07T23:37:58.887Z,13.80
2023-06-07T23:40:26.849Z,14.70
2023-06-07T23:42:54.882Z,14.30
2023-06-07T23:45:22.844Z,14.80
2023-06-07T23:47:50.869Z,15.70
2023-06-07T23:50:18.808Z,12.20
2023-06-07T23:52:46.557Z,11.10
2023-06-07T23:55:14.415Z,9.10
2023-06-07T23:57:42.591Z,9.80
